createdAt,value
2019-06-20T00:00:00.977Z,6.43
2019-06-20T00:05:04.908Z,6.27
2019-06-20T00:10:07.810Z,6.57
2019-06-20T00:15:10.932Z,5.63
2019-06-20T00:20:13.999Z,10.90
2019-06-20T00:25:16.805Z,6.80
2019-06-20T00:30:19.581Z,5.17
2019-06-20T00:35:22.364Z,8.03
2019-06-20T00:40:25.139Z,5.47
2019-06-20T00:45:27.933Z,12.50
2019-06-20T00:50:30.717Z,9.27
2019-06-20T00:55:33.499Z,7.47
2019-06-20T01:00:36.464Z,8.80
2019-06-20T01:05:39.283Z,6.90
2019-06-20T01:10:42.381Z,5.47
2019-06-20T01:15:45.162Z,6.80
2019-06-20T01:20:48.005Z,5.53
2019-06-20T01:25:50.754Z,12.67
2019-06-20T01:30:53.552Z,20.23
2019-06-20T01:36:02.173Z,13.57
2019-06-20T01:41:06.209Z,12.70
2019-06-20T01:46:09.272Z,10.27
2019-06-20T01:51:12.048Z,8.70
2019-06-20T01:56:14.827Z,6.10
2019-06-20T02:01:17.726Z,10.87
2019-06-20T02:06:20.641Z,7.87
2019-06-20T02:11:23.526Z,12.10
2019-06-20T02:16:26.304Z,13.97
2019-06-20T02:21:29.089Z,36.10
2019-06-20T02:26:31.888Z,14.27
2019-06-20T02:31:34.814Z,8.00
2019-06-20T02:36:37.639Z,11.23
2019-06-20T02:41:40.635Z,12.53
2019-06-20T02:46:43.421Z,7.70
2019-06-20T02:51:47.249Z,11.40
2019-06-20T02:56:50.190Z,9.77
2019-06-20T03:01:53.106Z,17.20
2019-06-20T03:06:55.874Z,15.70
2019-06-20T03:11:58.659Z,8.60
2019-06-20T03:17:01.520Z,13.33
2019-06-20T03:22:04.554Z,19.00
2019-06-20T03:27:08.187Z,21.13
2019-06-20T03:32:11.063Z,10.70
2019-06-20T03:37:13.978Z,21.83
2019-06-20T03:42:16.803Z,18.33
2019-06-20T03:47:19.647Z,17.40
2019-06-20T03:52:22.471Z,18.00
2019-06-20T03:57:25.264Z,18.30
2019-06-20T04:02:28.028Z,15.97
2019-06-20T04:07:30.973Z,24.23
2019-06-20T04:12:33.878Z,18.67
2019-06-20T04:17:36.670Z,19.60
2019-06-20T04:22:39.468Z,25.33
2019-06-20T04:27:42.243Z,16.50
2019-06-20T04:32:45.337Z,24.93
2019-06-20T04:37:48.545Z,17.43
2019-06-20T04:42:51.344Z,21.57
2019-06-20T04:47:54.131Z,25.10
2019-06-20T04:52:57.077Z,25.37
2019-06-20T04:58:00.007Z,29.30
2019-06-20T05:03:03.201Z,28.77
2019-06-20T05:08:06.032Z,33.90
2019-06-20T05:13:08.830Z,32.03
2019-06-20T05:18:11.750Z,28.50
2019-06-20T05:23:14.579Z,30.20
2019-06-20T05:28:17.469Z,37.93
2019-06-20T05:33:20.250Z,34.10
2019-06-20T05:38:23.034Z,41.90
2019-06-20T05:43:25.952Z,38.80
2019-06-20T05:48:28.781Z,47.20
2019-06-20T05:53:31.589Z,44.00
2019-06-20T05:58:34.530Z,43.63
2019-06-20T06:03:37.345Z,33.73
2019-06-20T06:08:40.211Z,37.97
2019-06-20T06:13:43.053Z,37.60
2019-06-20T06:18:45.877Z,40.60
2019-06-20T06:23:51.142Z,40.63
2019-06-20T06:28:54.079Z,37.10
2019-06-20T06:33:56.992Z,41.63
2019-06-20T06:38:59.803Z,36.37
2019-06-20T06:44:02.899Z,35.50
2019-06-20T06:49:05.714Z,37.03
2019-06-20T06:54:10.166Z,30.57
2019-06-20T06:59:13.420Z,33.00
2019-06-20T07:04:16.716Z,35.03
2019-06-20T07:09:19.855Z,27.10
2019-06-20T07:14:22.743Z,27.80
2019-06-20T07:19:25.875Z,31.73
2019-06-20T07:24:28.821Z,33.53
2019-06-20T07:29:31.779Z,25.63
2019-06-20T07:34:35.145Z,30.43
2019-06-20T07:39:39.400Z,34.90
2019-06-20T07:44:42.953Z,29.00
2019-06-20T07:49:46.567Z,26.33
2019-06-20T07:54:50.293Z,29.77
2019-06-20T07:59:54.268Z,29.97
2019-06-20T08:04:58.957Z,25.57
2019-06-20T08:10:03.767Z,30.20
2019-06-20T08:15:15.140Z,23.67
2019-06-20T08:20:18.099Z,25.63
2019-06-20T08:25:23.992Z,24.70
2019-06-20T08:30:30.098Z,23.63
2019-06-20T08:35:34.397Z,23.23
2019-06-20T08:40:42.891Z,27.40
2019-06-20T08:45:47.085Z,24.67
2019-06-20T08:50:51.463Z,25.30
2019-06-20T08:55:56.325Z,21.70
2019-06-20T09:06:07.280Z,21.23
2019-06-20T09:11:11.357Z,16.50
2019-06-20T09:16:24.243Z,15.63
2019-06-20T09:21:20.609Z,14.60
2019-06-20T09:26:24.043Z,13.03
2019-06-20T09:31:28.396Z,13.47
2019-06-20T09:36:32.142Z,12.63
2019-06-20T09:41:35.956Z,13.93
2019-06-20T09:46:39.809Z,13.40
2019-06-20T09:51:43.976Z,14.27
2019-06-20T09:56:53.082Z,10.50
2019-06-20T10:01:56.574Z,15.30
2019-06-20T10:07:01.307Z,12.90
2019-06-20T10:12:05.911Z,14.47
2019-06-20T10:17:10.583Z,14.73
2019-06-20T10:22:18.527Z,12.13
2019-06-20T10:27:24.392Z,14.23
2019-06-20T10:32:28.414Z,17.60
2019-06-20T10:37:31.973Z,10.93
2019-06-20T10:42:35.930Z,10.60
2019-06-20T10:47:40.312Z,8.80
2019-06-20T10:52:48.021Z,11.27
2019-06-20T10:57:52.504Z,11.00
2019-06-20T11:02:57.677Z,8.23
2019-06-20T11:08:02.133Z,8.67
2019-06-20T11:13:05.775Z,10.50
2019-06-20T11:18:09.343Z,11.50
2019-06-20T11:23:12.827Z,10.77
2019-06-20T11:28:17.091Z,12.30
2019-06-20T11:33:21.751Z,10.37
2019-06-20T11:38:25.957Z,14.83
2019-06-20T11:43:29.949Z,11.30
2019-06-20T11:48:35.314Z,11.80
2019-06-20T11:53:40.639Z,12.70
2019-06-20T11:58:44.952Z,12.90
2019-06-20T12:03:48.998Z,13.67
2019-06-20T12:09:10.057Z,10.93
2019-06-20T12:14:14.763Z,11.17
2019-06-20T12:19:17.978Z,12.03
2019-06-20T12:24:21.799Z,18.27
2019-06-20T12:29:27.349Z,14.90
2019-06-20T12:34:31.072Z,12.20
2019-06-20T12:39:34.903Z,11.50
2019-06-20T12:44:40.066Z,11.40
2019-06-20T12:49:43.841Z,10.97
2019-06-20T12:54:47.644Z,11.17
2019-06-20T12:59:52.086Z,9.27
2019-06-20T13:04:56.162Z,11.50
2019-06-20T13:10:01.936Z,14.47
2019-06-20T13:15:07.418Z,10.67
2019-06-20T13:20:12.418Z,10.70
2019-06-20T13:25:18.117Z,16.67
2019-06-20T13:30:22.250Z,9.50
2019-06-20T13:35:26.359Z,11.77
2019-06-20T13:40:30.361Z,15.47
2019-06-20T13:45:34.461Z,13.33
2019-06-20T13:50:38.668Z,10.07
2019-06-20T13:55:44.133Z,13.40
2019-06-20T14:00:48.205Z,9.67
2019-06-20T14:05:53.680Z,10.37
2019-06-20T14:10:57.716Z,11.37
2019-06-20T14:16:02.028Z,8.87
2019-06-20T14:21:06.156Z,8.73
2019-06-20T14:26:10.156Z,8.17
2019-06-20T14:31:14.239Z,7.83
2019-06-20T14:36:18.071Z,5.40
2019-06-20T14:41:22.076Z,14.93
2019-06-20T14:46:25.841Z,14.80
2019-06-20T14:51:29.848Z,7.23
2019-06-20T14:56:34.187Z,8.13
2019-06-20T15:01:37.996Z,10.50
2019-06-20T15:06:42.431Z,11.10
2019-06-20T15:11:49.704Z,12.33
2019-06-20T15:16:53.943Z,14.03
2019-06-20T15:21:58.110Z,10.80
2019-06-20T15:27:02.487Z,9.43
2019-06-20T15:32:06.802Z,8.30
2019-06-20T15:37:10.843Z,8.80
2019-06-20T15:42:14.506Z,16.93
2019-06-20T15:47:18.096Z,8.10
2019-06-20T15:52:22.076Z,8.37
2019-06-20T15:57:26.412Z,8.70
2019-06-20T16:02:30.236Z,5.60
2019-06-20T16:07:34.488Z,4.77
2019-06-20T16:12:38.861Z,5.40
2019-06-20T16:17:42.857Z,7.67
2019-06-20T16:22:46.802Z,5.00
2019-06-20T16:27:50.457Z,5.00
2019-06-20T16:32:54.102Z,5.00
2019-06-20T16:37:57.538Z,7.23
2019-06-20T16:43:02.056Z,4.23
2019-06-20T16:48:06.117Z,4.90
2019-06-20T16:53:10.324Z,6.83
2019-06-20T16:58:14.629Z,7.47
2019-06-20T17:03:18.116Z,6.20
2019-06-20T17:08:22.292Z,7.70
2019-06-20T17:13:26.310Z,10.40
2019-06-20T17:18:30.279Z,6.60
2019-06-20T17:23:34.259Z,4.40
2019-06-20T17:28:37.991Z,5.07
2019-06-20T17:33:56.792Z,4.87
2019-06-20T17:38:48.977Z,8.53
2019-06-20T17:43:52.213Z,4.97
2019-06-20T17:48:56.570Z,5.43
2019-06-20T17:53:59.461Z,9.63
2019-06-20T17:59:02.336Z,5.73
2019-06-20T18:04:13.578Z,6.63
2019-06-20T18:09:10.031Z,6.37
2019-06-20T18:14:12.902Z,6.33
2019-06-20T18:19:15.653Z,11.00
2019-06-20T18:24:18.429Z,6.97
2019-06-20T18:29:21.211Z,5.83
2019-06-20T18:34:29.922Z,10.60
2019-06-20T18:39:28.697Z,14.43
2019-06-20T18:44:31.611Z,6.90
2019-06-20T18:49:34.414Z,6.50
2019-06-20T18:54:37.242Z,5.90
2019-06-20T18:59:40.015Z,13.20
2019-06-20T19:04:49.448Z,6.43
2019-06-20T19:09:47.884Z,12.73
2019-06-20T19:14:54.783Z,8.80
2019-06-20T19:19:57.678Z,6.50
2019-06-20T19:25:03.813Z,7.40
2019-06-20T19:30:05.570Z,7.43
2019-06-20T19:35:10.342Z,11.80
2019-06-20T19:40:13.985Z,11.43
2019-06-20T19:45:16.867Z,7.07
2019-06-20T19:50:20.134Z,7.10
2019-06-20T19:55:23.096Z,12.93
2019-06-20T20:00:25.839Z,11.17
2019-06-20T20:05:28.906Z,11.90
2019-06-20T20:10:47.496Z,13.73
2019-06-20T20:15:50.272Z,12.30
2019-06-20T20:20:53.044Z,10.53
2019-06-20T20:25:55.839Z,10.10
2019-06-20T20:30:58.610Z,8.80
2019-06-20T20:36:02.126Z,15.53
2019-06-20T20:41:04.984Z,10.63
2019-06-20T20:46:07.806Z,13.20
2019-06-20T20:51:10.813Z,8.90
2019-06-20T20:56:13.593Z,9.17
2019-06-20T21:01:28.814Z,10.10
2019-06-20T21:06:31.579Z,7.47
2019-06-20T21:11:34.404Z,5.40
2019-06-20T21:16:37.205Z,4.90
2019-06-20T21:21:40.094Z,7.83
2019-06-20T21:26:49.381Z,5.10
2019-06-20T21:31:47.647Z,4.80
2019-06-20T21:36:50.481Z,6.10
2019-06-20T21:41:53.331Z,6.97
2019-06-20T21:46:56.098Z,5.93
2019-06-20T21:51:58.887Z,9.83
2019-06-20T21:57:01.750Z,6.67
2019-06-20T22:02:05.750Z,13.97
2019-06-20T22:07:08.766Z,11.40
2019-06-20T22:12:11.555Z,7.67
2019-06-20T22:17:14.559Z,9.73
2019-06-20T22:22:17.419Z,8.00
2019-06-20T22:27:20.372Z,9.23
2019-06-20T22:32:23.168Z,11.17
2019-06-20T22:37:26.185Z,10.13
2019-06-20T22:42:29.366Z,9.73
2019-06-20T22:47:32.561Z,8.00
2019-06-20T22:52:35.728Z,9.03
2019-06-20T22:57:38.894Z,7.23
2019-06-20T23:02:42.114Z,7.33
2019-06-20T23:07:45.254Z,10.43
2019-06-20T23:12:48.358Z,10.37
2019-06-20T23:17:51.549Z,8.83
2019-06-20T23:22:54.751Z,10.50
2019-06-20T23:27:58.122Z,10.13
2019-06-20T23:33:01.095Z,10.20
2019-06-20T23:38:04.221Z,10.33
2019-06-20T23:43:07.526Z,9.50
2019-06-20T23:48:10.819Z,10.27
2019-06-20T23:53:25.670Z,10.63
2019-06-20T23:58:28.894Z,13.03
